Time;durP1;ratioP1;P1;durP2;ratioP2;P2;SDS_P1;SDS_P2;PMS_P1;PMS_P2;Temp;Humidity;BMP_temperature;BMP_pressure;BME280_temperature;BME280_humidity;BME280_pressure;Samples;Min_cycle;Max_cycle;Signal;HPM_P1;HPM_P2
2023/06/11 00:00:11;;;;;;;14.33;4.60;;;;;;;17.68;100.00;100836.56;2073223;28;20686;-74
2023/06/11 00:01:14;;;;;;;13.50;4.30;;;;;;;17.71;100.00;100834.09;2072285;28;20321;-74
2023/06/11 00:02:15;;;;;;;15.07;4.33;;;;;;;17.70;100.00;100829.75;2072263;28;20539;-74
2023/06/11 00:03:20;;;;;;;15.30;4.47;;;;;;;17.67;100.00;100836.28;2072953;28;21044;-74
2023/06/11 00:04:25;;;;;;;16.70;4.13;;;;;;;17.65;100.00;100833.97;2072963;28;20536;-74
2023/06/11 00:05:28;;;;;;;13.40;4.57;;;;;;;16.36;100.00;100629.03;2072909;28;20429;-73
2023/06/11 00:06:29;;;;;;;15.00;4.27;;;;;;;17.58;100.00;100823.88;2072282;28;20501;-73
2023/06/11 00:07:30;;;;;;;14.13;4.20;;;;;;;17.57;100.00;100827.16;2073200;28;20417;-73
2023/06/11 00:08:30;;;;;;;14.37;4.40;;;;;;;17.56;100.00;100830.44;2073091;28;20648;-74
2023/06/11 00:09:31;;;;;;;15.57;4.40;;;;;;;17.55;100.00;100845.69;2072952;28;20812;-73
2023/06/11 00:10:31;;;;;;;13.93;4.03;;;;;;;17.51;100.00;100845.09;2072513;28;20552;-74
2023/06/11 00:11:33;;;;;;;11.77;4.07;;;;;;;17.49;100.00;100837.16;2073072;28;20288;-73
2023/06/11 00:12:34;;;;;;;14.20;4.50;;;;;;;17.51;100.00;100836.69;2072937;28;20667;-73
2023/06/11 00:13:34;;;;;;;14.97;4.60;;;;;;;16.84;100.00;100725.09;2072790;28;20890;-74
2023/06/11 00:14:35;;;;;;;11.43;4.47;;;;;;;17.52;100.00;100836.22;2072252;28;20380;-74
2023/06/11 00:15:35;;;;;;;15.40;4.57;;;;;;;17.52;100.00;100836.97;2071987;28;20223;-74
2023/06/11 00:16:36;;;;;;;18.93;5.77;;;;;;;17.55;100.00;100832.44;2072818;28;20574;-74
2023/06/11 00:17:37;;;;;;;16.37;4.50;;;;;;;17.57;100.00;100832.78;2072811;28;20202;-74
2023/06/11 00:18:40;;;;;;;23.13;5.13;;;;;;;17.58;100.00;100829.47;2072757;28;20436;-74
2023/06/11 00:19:41;;;;;;;16.50;4.83;;;;;;;17.57;100.00;100829.97;2072506;28;20189;-74
2023/06/11 00:20:42;;;;;;;14.80;4.63;;;;;;;17.53;100.00;100815.34;2072478;28;20451;-74
2023/06/11 00:21:43;;;;;;;12.27;4.23;;;;;;;17.54;100.00;100822.50;2072962;28;20174;-75
2023/06/11 00:22:44;;;;;;;11.70;5.63;;;;;;;17.57;100.00;100826.38;2072674;28;20233;-73
2023/06/11 00:23:44;;;;;;;13.27;4.77;;;;;;;17.58;100.00;100825.13;2072807;28;20421;-74
2023/06/11 00:24:45;;;;;;;11.27;4.53;;;;;;;17.58;100.00;100834.31;2073181;28;20185;-74
2023/06/11 00:25:45;;;;;;;12.80;4.30;;;;;;;17.58;100.00;100831.50;2072208;28;20572;-74
2023/06/11 00:26:46;;;;;;;9.57;4.40;;;;;;;17.57;100.00;100829.97;2072763;28;20280;-74
2023/06/11 00:27:46;;;;;;;10.30;4.70;;;;;;;17.56;100.00;100828.41;2072778;28;20219;-73
2023/06/11 00:28:46;;;;;;;9.77;5.07;;;;;;;17.40;100.00;100805.63;2072828;28;20272;-74
2023/06/11 00:29:47;;;;;;;11.17;4.87;;;;;;;16.30;100.00;100639.28;2072743;28;20210;-73
2023/06/11 00:30:47;;;;;;;15.03;4.87;;;;;;;17.52;100.00;100832.63;2071788;28;20193;-74
2023/06/11 00:31:47;;;;;;;11.20;4.60;;;;;;;17.52;100.00;100828.56;2072626;28;20202;-73
2023/06/11 00:32:48;;;;;;;11.40;5.40;;;;;;;17.53;100.00;100834.97;2073084;28;20180;-73
2023/06/11 00:33:48;;;;;;;6.80;4.40;;;;;;;17.52;100.00;100824.22;2072702;28;20277;-74
2023/06/11 00:34:49;;;;;;;17.73;4.63;;;;;;;17.34;100.00;100794.25;2072730;28;20205;-73
2023/06/11 00:35:49;;;;;;;11.03;5.17;;;;;;;17.55;100.00;100838.06;2072405;28;20210;-73
2023/06/11 00:36:50;;;;;;;10.00;5.07;;;;;;;17.50;100.00;100821.91;2072765;28;20202;-74
2023/06/11 00:37:51;;;;;;;11.57;5.53;;;;;;;17.33;100.00;100793.47;2072696;28;20740;-74
2023/06/11 00:38:51;;;;;;;14.77;5.87;;;;;;;17.57;100.00;100829.97;2072696;28;20192;-74
2023/06/11 00:39:52;;;;;;;13.07;5.30;;;;;;;17.18;100.00;100770.22;2072839;28;20648;-74
2023/06/11 00:40:52;;;;;;;11.17;5.80;;;;;;;16.98;100.00;100748.84;2072291;28;20748;-74
2023/06/11 00:41:53;;;;;;;10.50;5.90;;;;;;;17.49;100.00;100816.78;2072812;28;20194;-74
2023/06/11 00:42:54;;;;;;;12.90;6.10;;;;;;;17.60;100.00;100831.03;2072494;28;20229;-74
2023/06/11 00:43:54;;;;;;;16.07;6.17;;;;;;;17.58;100.00;100831.50;2072822;28;20208;-73
2023/06/11 00:44:55;;;;;;;12.50;6.20;;;;;;;17.58;100.00;100825.91;2072832;28;20468;-75
2023/06/11 00:45:56;;;;;;;15.70;5.87;;;;;;;17.55;100.00;100831.69;2072234;28;20202;-74
2023/06/11 00:47:00;;;;;;;13.13;6.33;;;;;;;17.54;100.00;100825.31;2072666;28;20189;-74
2023/06/11 00:48:01;;;;;;;11.37;6.03;;;;;;;17.56;100.00;100831.19;2072874;28;20455;-74
2023/06/11 00:49:01;;;;;;;14.50;5.90;;;;;;;17.56;100.00;100831.19;2072608;28;20428;-73
2023/06/11 00:50:04;;;;;;;12.73;5.70;;;;;;;17.57;100.00;100835.56;2072925;28;20421;-73
2023/06/11 00:51:05;;;;;;;9.20;6.00;;;;;;;17.57;100.00;100834.78;2071659;28;20248;-73
2023/06/11 00:52:09;;;;;;;10.40;5.90;;;;;;;17.57;100.00;100829.97;2072762;28;20444;-74
2023/06/11 00:53:09;;;;;;;9.77;5.93;;;;;;;17.57;100.00;100829.97;2072595;28;20193;-73
2023/06/11 00:54:16;;;;;;;12.10;6.07;;;;;;;17.06;100.00;100756.44;2072615;28;20968;-74
2023/06/11 00:55:17;;;;;;;9.90;6.43;;;;;;;17.55;100.00;100838.06;2072614;28;20675;-74
2023/06/11 00:56:19;;;;;;;12.20;6.63;;;;;;;16.25;100.00;100639.94;2072136;28;20437;-73
2023/06/11 00:57:24;;;;;;;16.37;6.70;;;;;;;17.42;100.00;100824.25;2072489;28;20809;-73
2023/06/11 00:58:25;;;;;;;12.30;6.50;;;;;;;17.53;100.00;100837.75;2072624;28;20413;-74
2023/06/11 00:59:27;;;;;;;11.33;5.27;;;;;;;17.56;100.00;100836.81;2071676;28;20428;-73
2023/06/11 01:00:27;;;;;;;12.57;5.17;;;;;;;17.53;100.00;100843.38;2072100;28;20607;-74
2023/06/11 01:01:35;;;;;;;14.03;5.80;;;;;;;17.55;100.00;100840.84;2072271;28;20460;-73
2023/06/11 01:03:07;;;;;;;8.77;5.50;;;;;;;17.56;100.00;100839.59;2072635;28;20293;-73
2023/06/11 01:04:17;;;;;;;11.40;5.47;;;;;;;17.55;100.00;100837.31;2071712;28;20547;-74
2023/06/11 01:05:21;;;;;;;7.30;4.10;;;;;;;17.51;100.00;100831.09;2072547;28;20413;-73
2023/06/11 01:06:24;;;;;;;9.00;4.67;;;;;;;17.01;100.00;100765.47;2071897;28;20431;-73
2023/06/11 01:07:30;;;;;;;10.63;4.73;;;;;;;17.50;100.00;100835.91;2072422;28;20968;-73
2023/06/11 01:08:34;;;;;;;9.30;4.97;;;;;;;17.53;100.00;100863.00;2072926;28;20396;-74
2023/06/11 01:09:36;;;;;;;7.80;4.33;;;;;;;17.09;100.00;100775.84;2072904;28;20496;-73
2023/06/11 01:10:37;;;;;;;9.57;4.70;;;;;;;17.48;100.00;100820.81;2071999;28;20453;-73
2023/06/11 01:11:38;;;;;;;6.03;4.70;;;;;;;17.58;100.00;100842.72;2072484;28;21096;-74
2023/06/11 01:12:39;;;;;;;10.97;4.70;;;;;;;17.61;100.00;100838.97;2072526;28;20233;-74
2023/06/11 01:13:40;;;;;;;11.70;4.77;;;;;;;16.49;100.00;100682.00;2072457;28;20944;-74
2023/06/11 01:14:42;;;;;;;9.70;4.63;;;;;;;17.55;100.00;100843.66;2072420;28;20190;-73
2023/06/11 01:15:43;;;;;;;9.83;4.97;;;;;;;17.52;100.00;100848.19;2071892;28;20174;-74
2023/06/11 01:17:02;;;;;;;8.83;4.17;;;;;;;17.51;100.00;100839.50;2072379;28;20413;-73
2023/06/11 01:18:18;;;;;;;13.20;4.43;;;;;;;17.49;100.00;100842.75;2072535;28;20215;-74
2023/06/11 01:19:31;;;;;;;10.13;4.53;;;;;;;17.50;100.00;100840.75;2072263;28;21063;-74
2023/06/11 01:20:42;;;;;;;14.43;4.30;;;;;;;17.51;100.00;100839.50;2072091;28;20487;-74
2023/06/11 01:21:50;;;;;;;9.47;4.63;;;;;;;17.41;100.00;100855.56;2072630;28;20453;-74
2023/06/11 01:22:51;;;;;;;12.40;4.20;;;;;;;17.48;100.00;100844.03;2072225;28;20519;-74
2023/06/11 01:24:13;;;;;;;11.13;4.63;;;;;;;17.47;100.00;100847.28;2072412;28;20460;-74
2023/06/11 01:25:20;;;;;;;9.83;4.07;;;;;;;17.39;100.00;100851.69;2072331;28;20503;-74
2023/06/11 01:26:40;;;;;;;7.90;3.40;;;;;;;17.40;100.00;100844.84;2071715;28;20456;-74
2023/06/11 01:27:44;;;;;;;13.67;4.20;;;;;;;17.36;100.00;100848.53;2072492;28;20810;-74
2023/06/11 01:28:54;;;;;;;11.50;3.80;;;;;;;17.36;100.00;100842.19;2067080;28;20892;-73
2023/06/11 01:29:58;;;;;;;11.37;4.37;;;;;;;17.35;100.00;100852.59;2069830;28;20431;-74
2023/06/11 01:31:08;;;;;;;10.10;4.60;;;;;;;17.32;100.00;100859.13;2071732;28;20444;-74
2023/06/11 01:32:08;;;;;;;12.70;4.37;;;;;;;17.29;100.00;100848.09;2071605;28;20436;-74
2023/06/11 01:33:09;;;;;;;10.93;4.87;;;;;;;17.25;100.00;100851.09;2071794;28;20505;-74
2023/06/11 01:34:09;;;;;;;7.20;4.40;;;;;;;17.15;100.00;100835.56;2072278;28;20191;-75
2023/06/11 01:35:10;;;;;;;10.07;4.30;;;;;;;17.19;100.00;100843.78;2072355;28;20197;-73
2023/06/11 01:36:10;;;;;;;10.07;4.70;;;;;;;17.24;100.00;100851.56;2071996;28;20541;-73
2023/06/11 01:37:12;;;;;;;10.30;4.30;;;;;;;16.73;100.00;100773.19;2072449;28;20185;-73
2023/06/11 01:38:13;;;;;;;10.23;4.70;;;;;;;17.25;100.00;100851.09;2072479;28;20610;-73
2023/06/11 01:39:14;;;;;;;9.83;4.23;;;;;;;17.25;100.00;100858.69;2072406;28;20484;-74
2023/06/11 01:40:14;;;;;;;9.67;4.70;;;;;;;17.23;100.00;100848.00;2072259;28;20502;-74
2023/06/11 01:41:15;;;;;;;10.77;5.30;;;;;;;17.25;100.00;100858.69;2071948;28;20178;-73
2023/06/11 01:42:15;;;;;;;10.50;4.70;;;;;;;17.26;100.00;100855.44;2072492;28;20644;-74
2023/06/11 01:43:16;;;;;;;12.73;4.53;;;;;;;17.23;100.00;100850.78;2071478;28;20205;-74
2023/06/11 01:44:19;;;;;;;13.17;4.97;;;;;;;17.15;100.00;100851.56;2071664;28;20266;-73
2023/06/11 01:45:21;;;;;;;16.50;4.50;;;;;;;17.21;100.00;100849.72;2079440;28;20184;-73
2023/06/11 01:46:22;;;;;;;6.77;4.20;;;;;;;16.65;100.00;100771.94;2063798;28;20420;-74
2023/06/11 01:47:22;;;;;;;11.37;4.17;;;;;;;17.17;100.00;100854.69;2071564;28;20953;-73
2023/06/11 01:48:23;;;;;;;8.33;4.37;;;;;;;17.14;100.00;100850.03;2072422;28;20189;-73
2023/06/11 01:49:23;;;;;;;11.37;4.67;;;;;;;17.10;100.00;100864.19;2072189;28;20392;-73
2023/06/11 01:50:24;;;;;;;10.53;4.27;;;;;;;16.92;100.00;100839.06;2072372;28;20239;-73
2023/06/11 01:51:24;;;;;;;14.57;4.63;;;;;;;16.35;100.00;100760.94;2071754;28;20619;-74
2023/06/11 01:52:25;;;;;;;11.80;4.27;;;;;;;17.10;100.00;100857.81;2072234;28;20663;-74
2023/06/11 01:53:25;;;;;;;11.43;4.87;;;;;;;16.73;100.00;100820.75;2072350;28;20669;-73
2023/06/11 01:54:25;;;;;;;11.50;4.83;;;;;;;17.00;100.00;100843.06;2072463;28;20253;-73
2023/06/11 01:55:26;;;;;;;10.63;4.67;;;;;;;17.09;100.00;100868.25;2071535;28;20260;-73
2023/06/11 01:56:27;;;;;;;14.60;4.40;;;;;;;16.71;100.00;100802.88;2070897;28;20770;-74
2023/06/11 01:57:27;;;;;;;9.47;4.60;;;;;;;16.61;100.00;100787.34;2075586;28;20213;-73
2023/06/11 01:58:27;;;;;;;11.47;4.10;;;;;;;17.16;100.00;100865.09;2077094;28;20202;-74
2023/06/11 01:59:28;;;;;;;13.43;4.47;;;;;;;17.15;100.00;100863.56;2072306;28;20180;-73
2023/06/11 02:00:29;;;;;;;11.77;4.30;;;;;;;17.16;100.00;100867.16;2072138;28;20261;-73
2023/06/11 02:01:29;;;;;;;11.43;4.53;;;;;;;17.09;100.00;100871.06;2072405;28;20192;-73
2023/06/11 02:02:31;;;;;;;11.80;4.77;;;;;;;17.04;100.00;100868.88;2072490;28;20432;-73
2023/06/11 02:03:31;;;;;;;12.00;4.97;;;;;;;17.02;100.00;100870.59;2072319;28;20201;-73
2023/06/11 02:04:32;;;;;;;12.03;4.70;;;;;;;17.01;100.00;100872.63;2072413;28;20472;-73
2023/06/11 02:05:32;;;;;;;11.83;4.43;;;;;;;16.98;100.00;100876.38;2072107;28;20336;-74
2023/06/11 02:06:33;;;;;;;11.50;4.67;;;;;;;16.94;100.00;100877.75;2071498;28;20209;-73
2023/06/11 02:07:34;;;;;;;10.73;4.57;;;;;;;16.92;100.00;100880.25;2071603;28;20181;-74
2023/06/11 02:08:35;;;;;;;10.77;4.80;;;;;;;16.90;100.00;100880.72;2072337;28;20519;-73
2023/06/11 02:09:35;;;;;;;9.23;4.80;;;;;;;16.86;100.00;100888.50;2072648;28;20262;-73
2023/06/11 02:10:36;;;;;;;10.40;4.80;;;;;;;15.87;100.00;100731.94;2071828;28;20186;-73
2023/06/11 02:11:36;;;;;;;13.20;5.07;;;;;;;16.65;100.00;100849.53;2072243;28;20210;-73
2023/06/11 02:12:37;;;;;;;14.50;5.07;;;;;;;16.90;100.00;100888.38;2072270;28;20630;-73
2023/06/11 02:13:37;;;;;;;10.63;4.87;;;;;;;16.92;100.00;100886.66;2072308;28;20559;-74
2023/06/11 02:14:38;;;;;;;11.20;4.43;;;;;;;16.95;100.00;100891.28;2071693;28;20408;-74
2023/06/11 02:15:38;;;;;;;9.30;4.90;;;;;;;16.99;100.00;100888.31;2071519;28;20182;-73
2023/06/11 02:16:39;;;;;;;14.10;4.70;;;;;;;16.47;100.00;100798.41;2072238;28;20185;-74
2023/06/11 02:17:39;;;;;;;13.60;6.53;;;;;;;17.00;100.00;100887.88;2072633;28;20182;-73
2023/06/11 02:18:40;;;;;;;13.10;4.70;;;;;;;16.98;100.00;100881.19;2072233;28;20203;-73
2023/06/11 02:19:40;;;;;;;9.30;4.43;;;;;;;16.84;100.00;100870.63;2072287;28;20185;-73
2023/06/11 02:20:41;;;;;;;12.57;4.80;;;;;;;16.87;100.00;100889.28;2071997;28;20572;-73
2023/06/11 02:21:43;;;;;;;10.17;4.37;;;;;;;16.83;100.00;100893.50;2072482;28;20193;-73
2023/06/11 02:22:43;;;;;;;12.13;4.63;;;;;;;16.81;100.00;100893.97;2072383;28;20624;-74
2023/06/11 02:23:43;;;;;;;8.53;4.50;;;;;;;16.81;100.00;100877.94;2072214;28;20505;-74
2023/06/11 02:24:44;;;;;;;10.13;4.50;;;;;;;16.88;100.00;100890.84;2072317;28;20214;-73
2023/06/11 02:25:44;;;;;;;10.10;5.20;;;;;;;16.94;100.00;100888.97;2071925;28;20181;-73
2023/06/11 02:26:45;;;;;;;9.17;4.80;;;;;;;16.97;100.00;100888.03;2072188;28;20198;-74
2023/06/11 02:27:48;;;;;;;10.07;4.33;;;;;;;15.76;100.00;100698.09;2072121;28;20316;-73
2023/06/11 02:28:48;;;;;;;11.23;4.63;;;;;;;16.95;100.00;100888.50;2072483;28;20196;-74
2023/06/11 02:29:48;;;;;;;12.20;4.63;;;;;;;16.81;100.00;100866.75;2072495;28;20447;-74
2023/06/11 02:30:49;;;;;;;11.80;4.80;;;;;;;16.19;100.00;100783.66;2071800;28;20204;-73
2023/06/11 02:31:49;;;;;;;15.83;4.80;;;;;;;16.92;100.00;100886.66;2072146;28;20641;-74
2023/06/11 02:32:50;;;;;;;9.60;5.10;;;;;;;16.88;100.00;100876.09;2072279;28;20189;-73
2023/06/11 02:33:50;;;;;;;9.37;4.77;;;;;;;16.95;100.00;100885.69;2072336;28;20214;-74
2023/06/11 02:34:50;;;;;;;12.33;4.97;;;;;;;16.98;100.00;100894.41;2072270;28;20192;-73
2023/06/11 02:35:51;;;;;;;10.50;4.50;;;;;;;16.93;100.00;100881.81;2071445;28;20232;-73
2023/06/11 02:36:51;;;;;;;13.67;4.40;;;;;;;17.03;100.00;100891.75;2072340;28;20933;-74
2023/06/11 02:37:52;;;;;;;9.53;4.60;;;;;;;17.04;100.00;100901.69;2072359;28;20642;-73
2023/06/11 02:38:52;;;;;;;9.97;4.63;;;;;;;17.07;100.00;100889.56;2072094;28;20216;-73
2023/06/11 02:39:53;;;;;;;9.57;4.53;;;;;;;17.09;100.00;100899.06;2069390;28;20205;-74
2023/06/11 02:40:53;;;;;;;11.37;4.80;;;;;;;17.14;100.00;100892.81;2070431;28;20192;-74
2023/06/11 02:41:53;;;;;;;17.20;4.50;;;;;;;17.17;100.00;100900.25;2072201;28;20223;-74
2023/06/11 02:42:54;;;;;;;11.83;4.30;;;;;;;17.16;100.00;100895.91;2071709;28;20756;-73
2023/06/11 02:43:54;;;;;;;10.40;4.67;;;;;;;17.08;100.00;100868.72;2072468;28;20673;-74
2023/06/11 02:44:55;;;;;;;11.00;4.33;;;;;;;17.19;100.00;100897.00;2072192;28;20198;-74
2023/06/11 02:45:55;;;;;;;9.00;4.30;;;;;;;17.16;100.00;100878.34;2073216;28;20271;-73
2023/06/11 02:46:55;;;;;;;7.57;4.43;;;;;;;17.24;100.00;100891.53;2073737;28;20204;-73
2023/06/11 02:47:56;;;;;;;14.87;5.00;;;;;;;17.26;100.00;100891.84;2073717;28;20219;-74
2023/06/11 02:48:56;;;;;;;14.63;4.90;;;;;;;16.09;100.00;100723.38;2073662;28;20315;-74
2023/06/11 02:49:57;;;;;;;9.90;5.07;;;;;;;17.05;100.00;100864.06;2073758;28;20174;-74
2023/06/11 02:50:57;;;;;;;8.20;4.40;;;;;;;17.26;100.00;100903.03;2073397;28;20261;-74
2023/06/11 02:51:58;;;;;;;9.37;4.53;;;;;;;16.30;100.00;100748.34;2073850;28;20198;-74
2023/06/11 02:52:58;;;;;;;7.07;4.27;;;;;;;17.31;100.00;100896.03;2073569;28;20543;-73
2023/06/11 02:53:58;;;;;;;11.80;4.37;;;;;;;16.45;100.00;100756.94;2074007;28;20206;-74
2023/06/11 02:54:59;;;;;;;8.73;4.47;;;;;;;17.32;100.00;100889.19;2073535;28;20196;-73
2023/06/11 02:55:59;;;;;;;11.70;5.30;;;;;;;17.27;100.00;100881.44;2072970;28;20197;-73
2023/06/11 02:57:00;;;;;;;12.87;4.80;;;;;;;16.94;100.00;100825.38;2073652;28;20279;-74
2023/06/11 02:58:00;;;;;;;12.80;4.90;;;;;;;16.66;100.00;100783.91;2073787;28;20173;-74
2023/06/11 02:59:00;;;;;;;12.63;5.00;;;;;;;17.21;100.00;100867.28;2073682;28;20189;-74
2023/06/11 03:00:01;;;;;;;8.50;4.43;;;;;;;17.33;100.00;100871.91;2073915;28;20199;-74
2023/06/11 03:01:01;;;;;;;12.37;4.53;;;;;;;17.35;100.00;100874.22;2073157;28;20196;-73
2023/06/11 03:02:02;;;;;;;13.83;4.90;;;;;;;17.38;100.00;100892.91;2073899;28;20198;-74
2023/06/11 03:03:02;;;;;;;10.73;4.60;;;;;;;17.32;100.00;100898.34;2073678;28;20647;-74
2023/06/11 03:04:03;;;;;;;15.77;4.53;;;;;;;17.32;100.00;100898.34;2072933;28;20210;-73
2023/06/11 03:05:04;;;;;;;11.93;4.37;;;;;;;17.34;100.00;100890.28;2072991;28;20174;-74
2023/06/11 03:06:04;;;;;;;10.93;4.50;;;;;;;17.33;100.00;100896.34;2073182;28;20179;-73
2023/06/11 03:07:05;;;;;;;16.13;4.80;;;;;;;17.34;100.00;100898.69;2073402;28;20429;-73
2023/06/11 03:08:06;;;;;;;11.13;4.70;;;;;;;16.39;100.00;100739.22;2073952;28;20184;-74
2023/06/11 03:09:06;;;;;;;14.60;3.87;;;;;;;17.41;100.00;100894.00;2073486;28;20286;-74
2023/06/11 03:10:07;;;;;;;12.07;4.20;;;;;;;17.45;100.00;100901.00;2073749;28;20182;-74
2023/06/11 03:11:07;;;;;;;9.97;4.20;;;;;;;17.39;100.00;100876.91;2072970;28;20212;-74
2023/06/11 03:12:08;;;;;;;14.93;5.00;;;;;;;17.47;100.00;100895.72;2073806;28;20648;-74
2023/06/11 03:13:09;;;;;;;17.13;4.40;;;;;;;17.50;100.00;100894.75;2073319;28;20584;-74
2023/06/11 03:14:09;;;;;;;18.00;4.80;;;;;;;17.49;100.00;100901.59;2073777;28;20507;-73
2023/06/11 03:15:10;;;;;;;19.27;4.20;;;;;;;17.52;100.00;100899.88;2073210;28;20289;-74
2023/06/11 03:16:10;;;;;;;12.60;4.40;;;;;;;17.42;100.00;100874.69;2073337;28;20186;-74
2023/06/11 03:17:11;;;;;;;9.10;4.40;;;;;;;17.55;100.00;100899.72;2073350;28;20237;-74
2023/06/11 03:18:12;;;;;;;13.93;4.63;;;;;;;17.54;100.00;100900.97;2067411;28;20217;-73
2023/06/11 03:19:12;;;;;;;12.20;4.80;;;;;;;17.55;100.00;100898.94;2070516;28;20287;-74
2023/06/11 03:20:14;;;;;;;13.57;4.13;;;;;;;17.56;100.00;100906.84;2073630;28;20218;-73
2023/06/11 03:21:15;;;;;;;13.83;5.37;;;;;;;17.56;100.00;100903.28;2069541;28;20446;-73
2023/06/11 03:22:15;;;;;;;10.43;4.70;;;;;;;17.38;100.00;100873.28;2067828;28;20185;-73
2023/06/11 03:23:16;;;;;;;9.70;5.10;;;;;;;17.53;100.00;100902.97;2073529;28;20273;-74
2023/06/11 03:24:16;;;;;;;9.43;5.00;;;;;;;17.47;100.00;100892.91;2073462;28;20345;-73
2023/06/11 03:25:16;;;;;;;10.93;5.10;;;;;;;17.58;100.00;100900.78;2073795;28;20628;-73
2023/06/11 03:26:17;;;;;;;10.47;5.33;;;;;;;17.58;100.00;100899.53;2072852;28;20184;-74
2023/06/11 03:27:17;;;;;;;12.20;5.07;;;;;;;16.86;100.00;100784.94;2073518;28;20273;-73
2023/06/11 03:28:18;;;;;;;10.13;4.50;;;;;;;17.61;100.00;100902.66;2073293;28;20199;-73
2023/06/11 03:29:18;;;;;;;15.77;4.67;;;;;;;17.59;100.00;100894.72;2073621;28;20204;-73
2023/06/11 03:30:19;;;;;;;12.50;4.60;;;;;;;17.60;100.00;100901.09;2073568;28;20591;-74
2023/06/11 03:31:19;;;;;;;16.13;4.37;;;;;;;17.61;100.00;100902.66;2072654;28;20296;-73
2023/06/11 03:32:19;;;;;;;13.27;4.50;;;;;;;17.61;100.00;100906.22;2073659;28;20208;-73
2023/06/11 03:33:20;;;;;;;9.47;4.67;;;;;;;16.49;100.00;100729.56;2073693;28;20216;-73
2023/06/11 03:34:20;;;;;;;18.17;4.70;;;;;;;17.65;100.00;100912.44;2073437;28;20194;-73
2023/06/11 03:35:21;;;;;;;13.67;5.37;;;;;;;17.67;100.00;100907.91;2073255;28;20224;-73
2023/06/11 03:36:21;;;;;;;17.47;5.07;;;;;;;17.71;100.00;100913.34;2072738;28;20195;-73
2023/06/11 03:37:22;;;;;;;14.53;4.90;;;;;;;17.71;100.00;100907.72;2073547;28;20197;-73
2023/06/11 03:38:22;;;;;;;12.80;4.87;;;;;;;17.75;100.00;100910.38;2073357;28;20217;-73
2023/06/11 03:39:23;;;;;;;12.33;4.93;;;;;;;17.59;100.00;100889.09;2072491;28;20276;-73
2023/06/11 03:40:23;;;;;;;15.83;5.47;;;;;;;17.77;100.00;100914.25;2072627;28;20286;-73
2023/06/11 03:41:24;;;;;;;14.07;5.40;;;;;;;16.86;100.00;100776.53;2073222;28;20180;-73
2023/06/11 03:42:24;;;;;;;11.50;5.33;;;;;;;17.80;100.00;100907.69;2073344;28;20575;-73
2023/06/11 03:43:25;;;;;;;17.67;4.83;;;;;;;17.61;100.00;100886.59;2073172;28;20243;-73
2023/06/11 03:44:26;;;;;;;11.77;4.70;;;;;;;17.49;100.00;100851.16;2073477;28;20225;-73
2023/06/11 03:45:26;;;;;;;9.47;4.83;;;;;;;17.85;100.00;100909.09;2073389;28;20209;-73
2023/06/11 03:46:26;;;;;;;10.23;5.13;;;;;;;17.86;100.00;100905.03;2072809;28;20198;-73
2023/06/11 03:47:27;;;;;;;7.73;4.63;;;;;;;17.83;100.00;100894.75;2073413;28;20252;-73
2023/06/11 03:48:28;;;;;;;10.93;5.20;;;;;;;17.67;100.00;100860.25;2073331;28;20253;-73
2023/06/11 03:49:28;;;;;;;9.83;5.10;;;;;;;17.89;100.00;100896.44;2073415;28;20183;-73
2023/06/11 03:50:29;;;;;;;10.37;4.90;;;;;;;17.87;100.00;100904.56;2073040;28;20265;-73
2023/06/11 03:51:29;;;;;;;8.43;5.10;;;;;;;17.83;100.00;100890.69;2073155;28;20183;-73
2023/06/11 03:52:29;;;;;;;12.37;4.60;;;;;;;17.92;100.00;100900.31;2073133;28;20198;-74
2023/06/11 03:53:30;;;;;;;12.67;4.83;;;;;;;17.94;100.00;100902.16;2073212;28;20573;-73
2023/06/11 03:54:30;;;;;;;11.33;4.60;;;;;;;17.96;100.00;100903.72;2072848;28;20258;-74
2023/06/11 03:55:31;;;;;;;8.20;5.03;;;;;;;17.97;100.00;100899.66;2072763;28;20260;-73
2023/06/11 03:56:31;;;;;;;8.90;5.10;;;;;;;17.86;100.00;100880.56;2072975;28;20182;-74
2023/06/11 03:57:31;;;;;;;9.00;5.37;;;;;;;17.96;100.00;100900.91;2072844;28;20228;-74
2023/06/11 03:58:32;;;;;;;6.17;4.90;;;;;;;18.03;100.00;100912.56;2072785;28;20240;-73
2023/06/11 03:59:32;;;;;;;10.17;5.37;;;;;;;18.07;100.00;100907.53;2071884;28;20212;-74
2023/06/11 04:00:33;;;;;;;11.43;5.27;;;;;;;18.09;100.00;100913.47;2066963;28;20196;-73
2023/06/11 04:01:33;;;;;;;7.50;4.77;;;;;;;18.04;100.00;100900.84;2069736;28;20196;-73
2023/06/11 04:02:35;;;;;;;7.30;5.00;;;;;;;17.98;100.00;100894.34;2073130;28;20225;-74
2023/06/11 04:03:35;;;;;;;9.23;5.30;;;;;;;18.14;100.00;100913.56;2072984;28;20575;-73
2023/06/11 04:04:36;;;;;;;9.50;4.77;;;;;;;18.11;100.00;100896.91;2072983;28;20539;-74
2023/06/11 04:05:37;;;;;;;10.10;5.60;;;;;;;17.61;100.00;100822.13;2071942;28;20666;-73
2023/06/11 04:06:38;;;;;;;13.10;5.50;;;;;;;18.23;100.00;100912.75;2072744;28;20475;-73
2023/06/11 04:07:39;;;;;;;10.33;4.90;;;;;;;18.19;100.00;100890.47;2072912;28;20193;-74
2023/06/11 04:08:40;;;;;;;10.37;5.33;;;;;;;18.22;100.00;100896.38;2073099;28;20825;-73
2023/06/11 04:09:40;;;;;;;13.20;5.57;;;;;;;17.99;100.00;100873.47;2073241;28;20445;-73
2023/06/11 04:10:41;;;;;;;7.73;5.30;;;;;;;18.32;100.00;100903.50;2072567;28;20196;-73
2023/06/11 04:11:41;;;;;;;9.03;4.93;;;;;;;18.34;100.00;100903.81;2073141;28;20208;-74
2023/06/11 04:12:42;;;;;;;12.83;5.13;;;;;;;18.35;100.00;100900.53;2071343;28;20180;-74
2023/06/11 04:13:49;;;;;;;11.87;5.87;;;;;;;18.37;100.00;100900.81;2065450;28;20176;-73
2023/06/11 04:14:50;;;;;;;13.07;5.77;;;;;;;18.07;100.00;100851.44;2072954;28;20189;-74
2023/06/11 04:15:50;;;;;;;13.90;5.73;;;;;;;17.97;100.00;100833.13;2072501;28;20461;-74
2023/06/11 04:16:50;;;;;;;13.87;5.50;;;;;;;18.43;100.00;100903.75;2072865;28;20453;-73
2023/06/11 04:17:51;;;;;;;11.73;4.90;;;;;;;18.46;100.00;100908.38;2073340;28;20203;-73
2023/06/11 04:18:52;;;;;;;11.00;5.30;;;;;;;18.49;100.00;100899.81;2072908;28;20424;-74
2023/06/11 04:19:52;;;;;;;11.37;5.17;;;;;;;17.83;100.00;100802.25;2073095;28;20664;-74
2023/06/11 04:20:53;;;;;;;14.33;5.53;;;;;;;18.55;100.00;100913.94;2072687;28;20189;-73
2023/06/11 04:21:53;;;;;;;8.07;5.00;;;;;;;18.46;100.00;100897.94;2073256;28;20252;-73
2023/06/11 04:22:54;;;;;;;7.77;5.27;;;;;;;18.58;100.00;100913.75;2073213;28;20198;-73
2023/06/11 04:23:55;;;;;;;9.70;5.77;;;;;;;18.62;100.00;100919.97;2073255;28;20181;-73
2023/06/11 04:24:55;;;;;;;9.37;5.30;;;;;;;18.64;100.00;100914.66;2072505;28;20194;-74
2023/06/11 04:25:57;;;;;;;12.37;5.10;;;;;;;18.66;100.00;100922.56;2072014;28;20191;-74
2023/06/11 04:26:58;;;;;;;10.30;5.50;;;;;;;18.31;100.00;100866.22;2073273;28;20561;-73
2023/06/11 04:27:58;;;;;;;12.47;5.43;;;;;;;18.70;100.00;100931.59;2073063;28;20432;-74
2023/06/11 04:28:59;;;;;;;11.67;5.30;;;;;;;18.67;100.00;100912.91;2072460;28;20200;-73
2023/06/11 04:30:01;;;;;;;10.13;5.50;;;;;;;18.77;100.00;100923.56;2072470;28;20215;-73
2023/06/11 04:31:06;;;;;;;9.73;5.30;;;;;;;18.82;100.00;100919.31;2072610;28;20452;-73
2023/06/11 04:32:08;;;;;;;9.43;5.57;;;;;;;18.84;100.00;100917.56;2073118;28;20409;-73
2023/06/11 04:33:09;;;;;;;14.57;5.53;;;;;;;18.85;100.00;100918.34;2073050;28;20914;-74
2023/06/11 04:34:10;;;;;;;11.30;5.37;;;;;;;18.84;100.00;100923.19;2073185;28;20851;-73
2023/06/11 04:35:11;;;;;;;10.80;5.47;;;;;;;18.77;100.00;100901.13;2073068;28;20242;-73
2023/06/11 04:36:11;;;;;;;13.33;5.70;;;;;;;18.90;100.00;100920.50;2072479;28;20455;-74
2023/06/11 04:37:13;;;;;;;8.80;5.20;;;;;;;18.91;100.00;100920.03;2072481;28;20241;-73
2023/06/11 04:38:14;;;;;;;8.87;5.30;;;;;;;18.92;100.00;100913.13;2073204;28;20185;-73
2023/06/11 04:39:14;;;;;;;7.20;4.97;;;;;;;18.96;100.00;100912.94;2072814;28;20437;-73
2023/06/11 04:40:17;;;;;;;9.20;5.20;;;;;;;18.98;100.00;100919.63;2073304;28;20605;-73